Dom Aquino, Brazil
Current Conditions -  °F | °C
As of 6:00 AM on Friday 24 Oct 2014 (Local Time) from SBCY Reporting Station
Scattered Clouds Scattered Clouds  
Wind Chill: 79°   Ceiling: Unl
Heat Index: 81°   Visibility: 6mi
Dew Point: 70°   Wind: 6mph
Humidity: 74%   Direction: 360°N
Pressure: 29.85"   Gusts: NA
Location:  15.81°S, 54.92°W
Report Text: SBCY 240900Z 36005KT 9999 SCT020 SCT100 26/21 Q1011
Loading
Personal Weather Stations






























Interactive Weather Map
Tropical Storm Tracking
New forecast layout! Learn more

10-Day Weather Forecast

Advertisements
Track Severe Weather on mobile